createdAt,value
2022-11-08T00:01:34.859Z,12.30
2022-11-08T00:04:09.961Z,12.30
2022-11-08T00:07:00.732Z,12.33
2022-11-08T00:09:50.870Z,12.36
2022-11-08T00:12:40.394Z,12.37
2022-11-08T00:15:13.765Z,12.37
2022-11-08T00:17:45.975Z,12.36
2022-11-08T00:20:18.332Z,12.35
2022-11-08T00:22:50.581Z,12.35
2022-11-08T00:25:22.880Z,12.35
2022-11-08T00:27:55.229Z,12.36
2022-11-08T00:30:27.608Z,12.38
2022-11-08T00:32:59.845Z,12.38
2022-11-08T00:35:32.307Z,12.37
2022-11-08T00:38:05.170Z,12.37
2022-11-08T00:40:37.578Z,12.38
2022-11-08T00:43:09.822Z,12.39
2022-11-08T00:45:42.723Z,12.41
2022-11-08T00:48:15.140Z,12.42
2022-11-08T00:50:47.632Z,12.41
2022-11-08T00:53:19.987Z,12.40
2022-11-08T00:55:59.360Z,12.36
2022-11-08T00:58:31.840Z,12.31
2022-11-08T01:01:09.506Z,12.30
2022-11-08T01:03:42.061Z,12.32
2022-11-08T01:06:16.838Z,12.33
2022-11-08T01:08:49.979Z,12.33
2022-11-08T01:11:24.937Z,12.32
2022-11-08T01:14:00.594Z,12.30
2022-11-08T01:16:35.015Z,12.30
2022-11-08T01:19:07.329Z,12.27
2022-11-08T01:21:39.876Z,12.28
2022-11-08T01:24:12.318Z,12.23
2022-11-08T01:26:44.558Z,12.22
2022-11-08T01:29:16.870Z,12.22
2022-11-08T01:31:49.106Z,12.22
2022-11-08T01:34:21.580Z,12.21
2022-11-08T01:36:53.798Z,12.18
2022-11-08T01:39:26.021Z,12.15
2022-11-08T01:41:58.247Z,12.14
2022-11-08T01:44:30.469Z,12.11
2022-11-08T01:47:02.676Z,12.07
2022-11-08T01:49:46.011Z,12.06
2022-11-08T01:52:30.667Z,12.02
2022-11-08T01:55:15.234Z,11.97
2022-11-08T01:57:52.931Z,11.94
2022-11-08T02:00:25.601Z,11.93
2022-11-08T02:03:01.153Z,11.90
2022-11-08T02:05:35.007Z,11.88
2022-11-08T02:08:15.969Z,11.87
2022-11-08T02:10:52.705Z,11.89
2022-11-08T02:13:28.694Z,11.89
2022-11-08T02:16:01.325Z,11.89
2022-11-08T02:18:34.884Z,11.86
2022-11-08T02:21:13.359Z,11.83
2022-11-08T02:23:49.770Z,11.84
2022-11-08T02:26:24.944Z,11.82
2022-11-08T02:28:57.372Z,11.86
2022-11-08T02:31:29.745Z,11.86
2022-11-08T02:34:01.947Z,11.87
2022-11-08T02:36:34.176Z,11.90
2022-11-08T02:39:06.391Z,11.91
2022-11-08T02:41:38.566Z,11.87
2022-11-08T02:44:10.919Z,11.89
2022-11-08T02:46:43.151Z,11.90
2022-11-08T02:49:15.595Z,11.94
2022-11-08T02:51:47.994Z,11.95
2022-11-08T02:54:20.267Z,11.97
2022-11-08T02:56:52.483Z,11.99
2022-11-08T02:59:24.973Z,12.01
2022-11-08T03:01:57.510Z,12.03
2022-11-08T03:04:29.961Z,12.03
2022-11-08T03:07:02.249Z,12.00
2022-11-08T03:09:34.464Z,11.98
2022-11-08T03:12:07.128Z,11.96
2022-11-08T03:14:39.486Z,11.92
2022-11-08T03:17:11.723Z,11.90
2022-11-08T03:19:43.958Z,11.87
2022-11-08T03:22:16.311Z,11.84
2022-11-08T03:24:48.532Z,11.80
2022-11-08T03:27:21.164Z,11.80
2022-11-08T03:29:53.413Z,11.79
2022-11-08T03:32:25.642Z,11.76
2022-11-08T03:34:59.754Z,11.73
2022-11-08T03:37:32.138Z,11.73
2022-11-08T03:40:05.358Z,11.74
2022-11-08T03:42:37.595Z,11.74
2022-11-08T03:45:11.326Z,11.73
2022-11-08T03:47:46.423Z,11.73
2022-11-08T03:50:19.490Z,11.74
2022-11-08T03:52:53.394Z,11.75
2022-11-08T03:55:27.887Z,11.78
2022-11-08T03:58:00.281Z,11.79
2022-11-08T04:00:32.916Z,11.80
2022-11-08T04:03:06.079Z,11.81
2022-11-08T04:05:38.341Z,11.85
2022-11-08T04:08:10.674Z,11.87
2022-11-08T04:10:43.007Z,11.89
2022-11-08T04:13:32.487Z,11.89
2022-11-08T04:16:04.871Z,11.89
2022-11-08T04:18:54.628Z,11.88
2022-11-08T04:21:26.834Z,11.87
2022-11-08T04:23:59.723Z,11.87
2022-11-08T04:26:31.947Z,11.86
2022-11-08T04:29:05.548Z,11.86
2022-11-08T04:31:38.359Z,11.87
2022-11-08T04:34:10.611Z,11.88
2022-11-08T04:36:42.815Z,11.89
2022-11-08T04:39:15.128Z,11.90
2022-11-08T04:41:47.491Z,11.89
2022-11-08T04:44:19.897Z,11.86
2022-11-08T04:46:52.262Z,11.81
2022-11-08T04:49:24.573Z,11.71
2022-11-08T04:51:56.925Z,11.69
2022-11-08T04:54:29.244Z,11.72
2022-11-08T04:57:03.084Z,11.73
2022-11-08T04:59:35.385Z,11.76
2022-11-08T05:02:08.134Z,11.78
2022-11-08T05:04:40.643Z,11.77
2022-11-08T05:07:12.974Z,11.78
2022-11-08T05:09:45.211Z,11.78
2022-11-08T05:12:17.559Z,11.81
2022-11-08T05:14:49.803Z,11.83
2022-11-08T05:17:21.992Z,11.84
2022-11-08T05:20:11.719Z,11.85
2022-11-08T05:23:01.540Z,11.82
2022-11-08T05:25:33.780Z,11.84
2022-11-08T05:28:06.304Z,11.85
2022-11-08T05:30:38.673Z,11.84
2022-11-08T05:33:13.668Z,11.84
2022-11-08T05:35:45.887Z,11.84
2022-11-08T05:38:18.544Z,11.84
2022-11-08T05:40:51.062Z,11.85
2022-11-08T05:43:23.764Z,11.86
2022-11-08T05:45:56.061Z,11.86
2022-11-08T05:48:28.302Z,11.87
2022-11-08T05:51:00.779Z,11.89
2022-11-08T05:53:33.348Z,11.92
2022-11-08T05:56:06.710Z,11.92
2022-11-08T05:58:39.852Z,11.91
2022-11-08T06:01:15.163Z,11.91
2022-11-08T06:03:48.694Z,11.93
2022-11-08T06:06:22.794Z,11.95
2022-11-08T06:08:55.073Z,11.93
2022-11-08T06:11:28.854Z,11.91
2022-11-08T06:14:01.190Z,11.93
2022-11-08T06:16:33.478Z,11.95
2022-11-08T06:19:05.811Z,11.96
2022-11-08T06:21:38.050Z,11.96
2022-11-08T06:24:11.262Z,11.94
2022-11-08T06:26:43.474Z,11.93
2022-11-08T06:29:16.039Z,11.96
2022-11-08T06:31:48.306Z,11.96
2022-11-08T06:34:20.935Z,11.99
2022-11-08T06:36:55.151Z,12.01
2022-11-08T06:39:27.497Z,12.01
2022-11-08T06:41:59.885Z,12.00
2022-11-08T06:44:32.170Z,12.01
2022-11-08T06:47:04.831Z,12.02
2022-11-08T06:49:37.951Z,12.01
2022-11-08T06:52:10.210Z,12.01
2022-11-08T06:54:42.478Z,12.04
2022-11-08T06:57:14.891Z,12.05
2022-11-08T06:59:47.116Z,12.04
2022-11-08T07:02:19.619Z,12.00
2022-11-08T07:04:51.911Z,12.01
2022-11-08T07:07:24.302Z,12.04
2022-11-08T07:10:00.793Z,12.04
2022-11-08T07:12:35.043Z,12.05
2022-11-08T07:15:08.312Z,12.06
2022-11-08T07:17:40.694Z,12.08
2022-11-08T07:20:14.655Z,12.13
2022-11-08T07:22:46.852Z,12.16
2022-11-08T07:25:19.240Z,12.19
2022-11-08T07:27:51.640Z,12.22
2022-11-08T07:30:24.293Z,12.27
2022-11-08T07:32:58.387Z,12.36
2022-11-08T07:35:30.729Z,12.42
2022-11-08T07:38:03.148Z,12.43
2022-11-08T07:40:36.651Z,12.51
2022-11-08T07:43:13.120Z,12.56
2022-11-08T07:45:45.921Z,12.64
2022-11-08T07:48:18.158Z,12.74
2022-11-08T07:50:50.438Z,12.85
2022-11-08T07:53:23.330Z,12.95
2022-11-08T07:55:55.625Z,13.03
2022-11-08T07:58:28.005Z,13.12
2022-11-08T08:01:03.929Z,13.21
2022-11-08T08:03:36.190Z,13.33
2022-11-08T08:06:08.728Z,13.48
2022-11-08T08:08:41.049Z,13.72
2022-11-08T08:11:14.544Z,13.94
2022-11-08T08:13:46.797Z,14.17
2022-11-08T08:16:19.118Z,14.35
2022-11-08T08:18:56.161Z,14.49
2022-11-08T08:21:29.195Z,14.49
2022-11-08T08:24:01.530Z,14.54
2022-11-08T08:26:34.050Z,14.66
2022-11-08T08:29:06.380Z,14.84
2022-11-08T08:31:38.883Z,15.09
2022-11-08T08:34:11.200Z,15.40
2022-11-08T08:36:43.391Z,15.74
2022-11-08T08:39:15.922Z,15.95
2022-11-08T08:41:48.395Z,16.09
2022-11-08T08:44:20.817Z,16.28
2022-11-08T08:46:53.122Z,16.49
2022-11-08T08:49:25.475Z,16.69
2022-11-08T08:51:58.398Z,16.89
2022-11-08T08:54:30.704Z,17.08
2022-11-08T08:57:03.075Z,17.23
2022-11-08T09:02:27.521Z,17.59
2022-11-08T09:05:00.383Z,17.82
2022-11-08T09:07:32.664Z,17.90
2022-11-08T09:10:05.503Z,17.84
2022-11-08T09:12:38.132Z,17.83
2022-11-08T09:15:11.495Z,17.91
2022-11-08T09:17:43.910Z,17.91
2022-11-08T09:20:17.250Z,17.94
2022-11-08T09:22:49.691Z,18.01
2022-11-08T09:25:22.047Z,18.12
2022-11-08T09:27:57.000Z,18.25
2022-11-08T09:30:29.274Z,18.27
2022-11-08T09:33:02.522Z,18.32
2022-11-08T09:35:34.966Z,18.38
2022-11-08T09:38:07.575Z,18.48
2022-11-08T09:40:50.933Z,18.54
2022-11-08T09:43:42.078Z,18.43
2022-11-08T09:46:21.651Z,18.36
2022-11-08T09:48:56.319Z,18.35
2022-11-08T09:51:30.049Z,18.29
2022-11-08T09:54:04.314Z,18.18
2022-11-08T09:56:39.405Z,18.03
2022-11-08T09:59:32.166Z,17.94
2022-11-08T10:02:04.716Z,17.87
2022-11-08T10:04:39.301Z,17.87
2022-11-08T10:07:30.367Z,17.83
2022-11-08T10:10:19.106Z,17.72
2022-11-08T10:13:00.604Z,17.59
2022-11-08T10:15:41.492Z,17.49
2022-11-08T10:18:35.913Z,17.49
2022-11-08T10:21:16.172Z,17.51
2022-11-08T10:23:54.484Z,17.50
2022-11-08T10:26:34.893Z,17.42
2022-11-08T10:29:17.623Z,17.33
2022-11-08T10:31:53.976Z,17.31
2022-11-08T10:34:30.088Z,17.27
2022-11-08T10:37:07.755Z,17.21
2022-11-08T10:39:44.894Z,17.19
2022-11-08T10:42:22.222Z,17.13
2022-11-08T10:44:55.202Z,17.09
2022-11-08T10:47:30.726Z,17.08
2022-11-08T10:50:08.030Z,17.01
2022-11-08T10:52:46.100Z,16.91
2022-11-08T10:55:31.017Z,16.91
2022-11-08T10:58:03.687Z,16.95
2022-11-08T11:00:36.821Z,17.03
2022-11-08T11:03:29.074Z,17.05
2022-11-08T11:06:04.830Z,17.02
2022-11-08T11:08:49.101Z,16.96
2022-11-08T11:11:36.838Z,16.94
2022-11-08T11:14:16.488Z,16.98
2022-11-08T11:17:06.270Z,17.02
2022-11-08T11:19:38.755Z,17.05
2022-11-08T11:22:12.438Z,17.09
2022-11-08T11:24:54.886Z,17.11
2022-11-08T11:27:31.360Z,17.15
2022-11-08T11:30:26.122Z,17.20
2022-11-08T11:33:08.077Z,17.18
2022-11-08T11:35:48.112Z,17.16
2022-11-08T11:38:29.962Z,17.15
2022-11-08T11:41:11.070Z,17.12
2022-11-08T11:43:49.342Z,17.11
2022-11-08T11:46:26.499Z,17.11
2022-11-08T11:49:03.745Z,17.10
2022-11-08T11:51:36.029Z,17.08
2022-11-08T11:54:14.789Z,17.06
2022-11-08T11:56:56.511Z,17.06
2022-11-08T11:59:53.245Z,17.03
2022-11-08T12:03:04.124Z,17.05
2022-11-08T12:05:58.398Z,17.02
2022-11-08T12:08:45.239Z,17.04
2022-11-08T12:11:33.368Z,17.03
2022-11-08T12:14:20.188Z,17.06
2022-11-08T12:17:05.041Z,17.09
2022-11-08T12:19:49.775Z,17.03
2022-11-08T12:22:39.967Z,17.01
2022-11-08T12:25:20.551Z,17.00
2022-11-08T12:27:58.279Z,16.97
2022-11-08T12:30:45.569Z,16.93
2022-11-08T12:33:30.736Z,16.89
2022-11-08T12:36:13.093Z,16.91
2022-11-08T12:39:06.528Z,16.93
2022-11-08T12:41:53.676Z,16.96
2022-11-08T12:44:48.478Z,16.98
2022-11-08T12:47:31.863Z,17.00
2022-11-08T12:50:26.162Z,17.05
2022-11-08T12:53:20.549Z,17.03
2022-11-08T12:55:57.235Z,17.02
2022-11-08T12:58:37.123Z,17.03
2022-11-08T13:01:14.292Z,17.04
2022-11-08T13:04:07.349Z,17.08
2022-11-08T13:06:47.556Z,17.07
2022-11-08T13:09:34.217Z,17.08
2022-11-08T13:12:14.555Z,17.05
2022-11-08T13:14:47.026Z,17.04
2022-11-08T13:17:26.367Z,17.03
2022-11-08T13:20:05.994Z,17.03
2022-11-08T13:23:02.601Z,17.01
2022-11-08T13:25:37.358Z,17.01
2022-11-08T13:28:38.264Z,16.96
2022-11-08T13:31:21.947Z,16.87
2022-11-08T13:34:18.439Z,16.76
2022-11-08T13:36:55.511Z,16.72
2022-11-08T13:40:04.722Z,16.70
2022-11-08T13:43:00.292Z,16.70
2022-11-08T13:45:35.293Z,16.69
2022-11-08T13:48:34.406Z,16.70
2022-11-08T13:51:27.237Z,16.71
2022-11-08T13:54:28.584Z,16.71
2022-11-08T13:57:02.044Z,16.71
2022-11-08T13:59:59.610Z,16.70
2022-11-08T14:02:44.775Z,16.73
2022-11-08T14:05:42.827Z,16.75
2022-11-08T14:08:24.278Z,16.76
2022-11-08T14:11:36.814Z,16.74
2022-11-08T14:14:35.399Z,16.69
2022-11-08T14:17:32.250Z,16.70
2022-11-08T14:20:24.419Z,16.71
2022-11-08T14:22:57.325Z,16.67
2022-11-08T14:25:36.385Z,16.66
2022-11-08T14:28:21.920Z,16.67
2022-11-08T14:30:54.420Z,16.68
2022-11-08T14:33:27.773Z,16.64
2022-11-08T14:36:02.539Z,16.66
2022-11-08T14:38:38.451Z,16.68
2022-11-08T14:41:15.617Z,16.71
2022-11-08T14:43:49.246Z,16.73
2022-11-08T14:46:29.721Z,16.75
2022-11-08T14:49:11.467Z,16.76
2022-11-08T14:51:44.714Z,16.77
2022-11-08T14:54:21.948Z,16.78
2022-11-08T14:56:56.010Z,16.79
2022-11-08T14:59:28.176Z,16.79
2022-11-08T15:02:01.423Z,16.80
2022-11-08T15:04:33.608Z,16.80
2022-11-08T15:07:10.252Z,16.79
2022-11-08T15:09:42.597Z,16.77
2022-11-08T15:12:19.220Z,16.74
2022-11-08T15:14:57.665Z,16.68
2022-11-08T15:17:35.334Z,16.68
2022-11-08T15:20:21.523Z,16.65
2022-11-08T15:22:56.687Z,16.61
2022-11-08T15:25:34.734Z,16.63
2022-11-08T15:28:22.325Z,16.61
2022-11-08T15:30:58.250Z,16.58
2022-11-08T15:33:36.165Z,16.56
2022-11-08T15:36:16.850Z,16.54
2022-11-08T15:38:52.225Z,16.52
2022-11-08T15:41:35.190Z,16.50
2022-11-08T15:44:17.101Z,16.48
2022-11-08T15:46:50.038Z,16.45
2022-11-08T15:49:24.135Z,16.43
2022-11-08T15:51:58.753Z,16.39
2022-11-08T15:54:31.254Z,16.35
2022-11-08T15:57:03.517Z,16.28
2022-11-08T15:59:37.718Z,16.21
2022-11-08T16:02:15.972Z,16.15
2022-11-08T16:04:48.141Z,16.10
2022-11-08T16:07:20.511Z,16.05
2022-11-08T16:09:52.816Z,16.01
2022-11-08T16:12:25.064Z,15.95
2022-11-08T16:14:58.079Z,15.90
2022-11-08T16:17:30.508Z,15.86
2022-11-08T16:20:02.787Z,15.82
2022-11-08T16:22:35.024Z,15.79
2022-11-08T16:25:08.284Z,15.79
2022-11-08T16:27:40.508Z,15.79
2022-11-08T16:30:18.754Z,15.80
2022-11-08T16:32:51.517Z,15.80
2022-11-08T16:35:23.892Z,15.80
2022-11-08T16:37:56.151Z,15.80
2022-11-08T16:40:28.649Z,15.78
2022-11-08T16:43:00.847Z,15.76
2022-11-08T16:46:03.337Z,15.76
2022-11-08T16:48:29.648Z,15.75
2022-11-08T16:51:05.180Z,15.75
2022-11-08T16:53:38.092Z,15.75
2022-11-08T16:56:10.598Z,15.74
2022-11-08T16:58:43.158Z,15.73
2022-11-08T17:01:21.038Z,15.73
2022-11-08T17:03:53.418Z,15.71
2022-11-08T17:06:25.724Z,15.70
2022-11-08T17:08:58.103Z,15.69
2022-11-08T17:11:30.395Z,15.68
2022-11-08T17:14:03.351Z,15.68
2022-11-08T17:16:35.628Z,15.66
2022-11-08T17:19:07.992Z,15.63
2022-11-08T17:21:45.031Z,15.61
2022-11-08T17:24:22.143Z,15.55
2022-11-08T17:26:54.548Z,15.47
2022-11-08T17:29:26.981Z,15.36
2022-11-08T17:31:59.324Z,15.26
2022-11-08T17:34:31.654Z,15.15
2022-11-08T17:37:03.946Z,15.07
2022-11-08T17:39:36.197Z,14.99
2022-11-08T17:42:08.580Z,14.95
2022-11-08T17:44:40.895Z,14.89
2022-11-08T17:47:13.142Z,14.83
2022-11-08T17:49:45.578Z,14.78
2022-11-08T17:52:17.982Z,14.72
2022-11-08T17:54:53.069Z,14.68
2022-11-08T17:57:25.594Z,14.65
2022-11-08T17:59:58.448Z,14.64
2022-11-08T18:02:30.858Z,14.64
2022-11-08T18:05:03.095Z,14.60
2022-11-08T18:07:35.920Z,14.57
2022-11-08T18:10:10.048Z,14.50
2022-11-08T18:12:42.356Z,14.46
2022-11-08T18:15:14.954Z,14.42
2022-11-08T18:17:47.135Z,14.40
2022-11-08T18:20:19.525Z,14.38
2022-11-08T18:22:51.881Z,14.34
2022-11-08T18:25:24.078Z,14.31
2022-11-08T18:27:56.437Z,14.29
2022-11-08T18:30:28.870Z,14.27
2022-11-08T18:33:01.272Z,14.24
2022-11-08T18:35:36.496Z,14.20
2022-11-08T18:38:08.717Z,14.15
2022-11-08T18:40:41.257Z,14.12
2022-11-08T18:43:13.483Z,14.10
2022-11-08T18:45:45.901Z,14.08
2022-11-08T18:48:18.134Z,14.04
2022-11-08T18:50:53.618Z,14.01
2022-11-08T18:53:26.082Z,13.97
2022-11-08T18:55:58.470Z,13.93
2022-11-08T18:58:31.000Z,13.92
2022-11-08T19:01:03.821Z,13.92
2022-11-08T19:03:36.353Z,13.93
2022-11-08T19:06:09.590Z,13.93
2022-11-08T19:08:41.869Z,13.90
2022-11-08T19:11:15.358Z,13.87
2022-11-08T19:13:47.848Z,13.83
2022-11-08T19:16:22.107Z,13.81
2022-11-08T19:18:54.539Z,13.80
2022-11-08T19:21:28.733Z,13.77
2022-11-08T19:24:08.709Z,13.74
2022-11-08T19:26:41.043Z,13.71
2022-11-08T19:29:14.261Z,13.69
2022-11-08T19:31:46.647Z,13.68
2022-11-08T19:34:19.235Z,13.67
2022-11-08T19:36:55.703Z,13.68
2022-11-08T19:39:28.794Z,13.69
2022-11-08T19:42:01.183Z,13.69
2022-11-08T19:44:33.460Z,13.70
2022-11-08T19:47:05.768Z,13.68
2022-11-08T19:49:38.251Z,13.67
2022-11-08T19:52:10.841Z,13.68
2022-11-08T19:54:43.312Z,13.70
2022-11-08T19:57:15.571Z,13.73
2022-11-08T19:59:47.837Z,13.74
2022-11-08T20:02:20.118Z,13.75
2022-11-08T20:04:52.485Z,13.76
2022-11-08T20:07:24.803Z,13.77
2022-11-08T20:09:58.930Z,13.78
2022-11-08T20:12:33.951Z,13.79
2022-11-08T20:15:08.012Z,13.79
2022-11-08T20:17:40.282Z,13.79
2022-11-08T20:20:13.755Z,13.79
2022-11-08T20:22:48.221Z,13.79
2022-11-08T20:25:20.870Z,13.80
2022-11-08T20:27:53.415Z,13.82
2022-11-08T20:30:25.758Z,13.82
2022-11-08T20:32:58.174Z,13.82
2022-11-08T20:35:30.498Z,13.82
2022-11-08T20:38:02.941Z,13.82
2022-11-08T20:40:35.235Z,13.82
2022-11-08T20:43:07.575Z,13.83
2022-11-08T20:45:43.893Z,13.84
2022-11-08T20:48:16.441Z,13.85
2022-11-08T20:50:49.374Z,13.85
2022-11-08T20:53:21.640Z,13.85
2022-11-08T20:55:59.959Z,13.83
2022-11-08T20:58:34.068Z,13.82
2022-11-08T21:01:08.435Z,13.81
2022-11-08T21:03:40.861Z,13.80
2022-11-08T21:06:15.242Z,13.79
2022-11-08T21:08:58.989Z,13.78
2022-11-08T21:11:33.100Z,13.76
2022-11-08T21:14:06.129Z,13.71
2022-11-08T21:16:59.744Z,13.68
2022-11-08T21:19:32.353Z,13.64
2022-11-08T21:22:16.930Z,13.60
2022-11-08T21:24:50.262Z,13.59
2022-11-08T21:27:27.067Z,13.56
2022-11-08T21:30:01.863Z,13.53
2022-11-08T21:32:34.431Z,13.51
2022-11-08T21:35:07.900Z,13.50
2022-11-08T21:37:40.450Z,13.48
2022-11-08T21:40:14.353Z,13.46
2022-11-08T21:42:48.941Z,13.44
2022-11-08T21:45:21.841Z,13.42
2022-11-08T21:47:55.339Z,13.39
2022-11-08T21:50:28.693Z,13.36
2022-11-08T21:53:01.578Z,13.34
2022-11-08T21:55:35.324Z,13.31
2022-11-08T21:58:07.903Z,13.30
2022-11-08T22:00:41.144Z,13.26
2022-11-08T22:03:14.932Z,13.24
2022-11-08T22:05:48.150Z,13.22
2022-11-08T22:08:20.982Z,13.21
2022-11-08T22:10:53.626Z,13.17
2022-11-08T22:13:26.089Z,13.10
2022-11-08T22:15:58.522Z,13.11
2022-11-08T22:18:58.294Z,13.10
2022-11-08T22:21:43.360Z,13.10
2022-11-08T22:24:20.310Z,13.06
2022-11-08T22:26:54.006Z,13.00
2022-11-08T22:29:26.506Z,12.98
2022-11-08T22:31:59.114Z,12.98
2022-11-08T22:34:31.647Z,12.95
2022-11-08T22:37:04.093Z,12.96
2022-11-08T22:39:36.635Z,12.95
2022-11-08T22:42:09.240Z,12.95
2022-11-08T22:44:41.752Z,12.97
2022-11-08T22:47:14.355Z,12.99
2022-11-08T22:49:46.871Z,13.01
2022-11-08T22:52:19.303Z,13.03
2022-11-08T22:54:51.804Z,13.04
2022-11-08T22:57:24.286Z,13.05
2022-11-08T22:59:56.743Z,13.05
2022-11-08T23:02:32.910Z,13.05
2022-11-08T23:05:05.980Z,13.07
2022-11-08T23:07:38.340Z,13.07
2022-11-08T23:10:12.141Z,13.06
2022-11-08T23:13:02.126Z,13.07
2022-11-08T23:16:05.277Z,13.07
2022-11-08T23:18:37.626Z,12.99
2022-11-08T23:21:27.504Z,12.95
2022-11-08T23:24:17.248Z,12.94
2022-11-08T23:27:07.036Z,12.91
2022-11-08T23:29:56.995Z,12.88
2022-11-08T23:32:29.385Z,12.81
2022-11-08T23:35:01.773Z,12.74
2022-11-08T23:37:34.070Z,12.66
2022-11-08T23:40:25.156Z,12.62
2022-11-08T23:43:28.669Z,12.56
2022-11-08T23:46:06.284Z,12.52
2022-11-08T23:48:39.200Z,12.50
2022-11-08T23:51:11.742Z,12.47
2022-11-08T23:53:44.134Z,12.45
2022-11-08T23:56:23.533Z,12.43
2022-11-08T23:58:57.548Z,12.41
